• Join FlightAware (Why Join?)
  • Login
  • US Flag 
09:14PM EDT


 

Airport Tracker/Info


-or-


 

Live Flight TrackerFlight Track Log ✈ N16112 ✈ 13-Apr-2013 ✈ KEWR - KCHS

Flight Track Log - Related Links

Times and Time Zones

All times are in EDT time to prevent confusion due to time zone crossing. See the N16112 flight status page for this flight to view local times or setup timezone preferences in your user account.

Time Position Orientation Groundspeed Altitude Reporting Facility
EDT Latitude Longitude Course Direction KTS MPH feet Rate Location/Type
08:28AM 40.7333 -74.1167 194° South 203 234 2,300  Level New York TRACON
08:29AM 40.7667 -74.1667 311° West 244 281 4,900 2,100 Climbing New York TRACON
08:30AM 40.4386 -74.2167 180° South  Level FlightAware Approximate
08:30AM 40.7167 -74.2167 217° Southwest 281 323 6,500  Level New York TRACON
08:31AM 40.3526 -74.1763 159° South  Level FlightAware Approximate
08:31AM 40.6500 -74.2667 210° Southwest 266 306 9,500  Level New York TRACON
08:32AM 40.2658 -74.1614 194° South  Level FlightAware Approximate
08:32AM 40.6000 -74.3333 225° Southwest 253 291 12,500  Level New York TRACON
08:33AM 40.1770 -74.1910 194° South  Level FlightAware Approximate
08:33AM 40.5167 -74.3167 171° South 329 379 13,500  Level New York TRACON
08:34AM 40.4333 -74.2333 143° Southeast 377 434 15,200 1,500 Climbing New York TRACON
08:35AM 40.3497 -74.1889 158° South 365 420 16,800 840 Climbing New York Center
08:36AM 40.2689 -74.0950 138° Southeast 356 410 17,100 60 Climbing New York Center
08:37AM 40.1872 -74.1075 187° South 284 327 17,000 780 Descending New York Center
08:38AM 40.1133 -74.1672 212° Southwest 305 351 18,800 1,680 Climbing Washington Center
08:39AM 40.0389 -74.2231 210° Southwest 324 373 20,500 1,620 Climbing Washington Center
08:40AM 39.9669 -74.2894 215° Southwest 329 379 22,100 1,260 Climbing Washington Center
08:41AM 39.8967 -74.3583 217° Southwest 329 379 23,100 1,200 Climbing Washington Center
08:42AM 39.8225 -74.4272 216° Southwest 329 379 24,500 1,320 Climbing Washington Center
08:43AM 39.7586 -74.5092 225° Southwest 329 379 25,800 1,260 Climbing Washington Center
08:44AM 39.6906 -74.5964 225° Southwest 323 372 27,100 1,320 Climbing Washington Center
08:45AM 39.6308 -74.6808 227° Southwest 317 365 28,500 1,320 Climbing Washington Center
08:46AM 39.5711 -74.7569 225° Southwest 317 365 29,800 1,260 Climbing Washington Center
08:47AM 39.5111 -74.8358 225° Southwest 312 359 31,100 1,260 Climbing Washington Center
08:48AM 39.4553 -74.9117 226° Southwest 301 346 32,400 1,260 Climbing Washington Center
08:49AM 39.3972 -74.9847 224° Southwest 301 346 33,700 1,140 Climbing Washington Center
08:50AM 39.3436 -75.0575 226° Southwest 296 341 34,800 900 Climbing Washington Center
08:51AM 39.2856 -75.1250 222° Southwest 291 335 35,500 600 Climbing Washington Center
08:52AM 39.2169 -75.1789 211° Southwest 291 335 36,000 240 Climbing Washington Center
08:53AM 39.1419 -75.2356 210° Southwest 302 348 36,000  Level Washington Center
08:54AM 39.0650 -75.2922 210° Southwest 315 362 36,000  Level Washington Center
08:55AM 38.9839 -75.3567 212° Southwest 320 368 36,000  Level Washington Center
08:56AM 38.9006 -75.4183 210° Southwest 341 392 36,000  Level Washington Center
08:57AM 38.8153 -75.4825 210° Southwest 352 405 36,000  Level Washington Center
08:58AM 38.7297 -75.5492 211° Southwest 358 412 36,000  Level Washington Center
08:59AM 38.6444 -75.6103 209° Southwest 358 412 36,000  Level Washington Center
09:00AM 38.5567 -75.6767 211° Southwest 358 412 36,000  Level Washington Center
09:01AM 38.4733 -75.7375 210° Southwest 358 412 36,000  Level Washington Center
09:02AM 38.3878 -75.8036 211° Southwest 358 412 36,000  Level Washington Center
09:03AM 38.3083 -75.8564 208° Southwest 358 412 36,000  Level Washington Center
09:04AM 38.2206 -75.9247 211° Southwest 358 412 36,000  Level Washington Center
09:05AM 38.1328 -75.9878 209° Southwest 358 412 36,000  Level Washington Center
09:06AM 38.0450 -76.0531 210° Southwest 358 412 36,000  Level Washington Center
09:07AM 37.9594 -76.1133 209° Southwest 358 412 36,000  Level Washington Center
09:08AM 37.8736 -76.1783 211° Southwest 358 412 36,000  Level Washington Center
09:09AM 37.7856 -76.2433 210° Southwest 358 412 36,000  Level Washington Center
09:10AM 37.6997 -76.3031 209° Southwest 358 412 36,000  Level Washington Center
09:11AM 37.6139 -76.3678 211° Southwest 358 412 36,000  Level Washington Center
09:12AM 37.5258 -76.4297 209° Southwest 358 412 36,000  Level Washington Center
09:13AM 37.4397 -76.4942 211° Southwest 358 412 36,000  Level Washington Center
09:14AM 37.3517 -76.5558 209° Southwest 358 412 36,000  Level Washington Center
09:15AM 37.2658 -76.6175 210° Southwest 358 412 36,000  Level Washington Center
09:16AM 37.1858 -76.6764 210° Southwest 353 406 36,000  Level Washington Center
09:17AM 37.1019 -76.7350 209° Southwest 353 406 36,000  Level Washington Center
09:18AM 37.0200 -76.7964 211° Southwest 353 406 36,000  Level Washington Center
09:19AM 36.9339 -76.8572 209° Southwest 353 406 36,000  Level Washington Center
09:20AM 36.8478 -76.9156 208° Southwest 353 406 36,000  Level Washington Center
09:21AM 36.7614 -76.9789 210° Southwest 358 412 36,000  Level Washington Center
09:22AM 36.6792 -77.0447 213° Southwest 358 412 36,000  Level Washington Center
09:23AM 36.6033 -77.1183 218° Southwest 358 412 36,000  Level Washington Center
09:24AM 36.5253 -77.1892 216° Southwest 358 412 36,000  Level Washington Center
09:25AM 36.4492 -77.2625 218° Southwest 358 412 36,000  Level Washington Center
09:26AM 36.3708 -77.3358 217° Southwest 352 405 36,000  Level Washington Center
09:27AM 36.2947 -77.4064 217° Southwest 347 399 36,000  Level Washington Center
09:28AM 36.2206 -77.4792 218° Southwest 347 399 36,000  Level Washington Center
09:29AM 36.1422 -77.5519 217° Southwest 347 399 36,000  Level Washington Center
09:30AM 36.0658 -77.6219 217° Southwest 347 399 36,000  Level Washington Center
09:31AM 35.9894 -77.6944 218° Southwest 347 399 36,000  Level Washington Center
09:32AM 35.9089 -77.7617 214° Southwest 347 399 36,000  Level Washington Center
09:33AM 35.8286 -77.8233 212° Southwest 347 399 36,000  Level Washington Center
09:34AM 35.7503 -77.8825 212° Southwest 347 399 36,000  Level Washington Center
09:35AM 35.6697 -77.9467 213° Southwest 347 399 36,000  Level Washington Center
09:36AM 35.5892 -78.0083 212° Southwest 347 399 36,000  Level Washington Center
09:37AM 35.5064 -78.0747 213° Southwest 353 406 36,000  Level Washington Center
09:38AM 35.4239 -78.1358 211° Southwest 353 406 36,000 -60 Level Washington Center
09:39AM 35.3389 -78.2044 213° Southwest 353 406 35,900 -900 Descending Washington Center
09:40AM 35.2561 -78.2678 212° Southwest 353 406 34,200 -1,920 Descending Washington Center
09:41AM 35.1669 -78.3361 212° Southwest 364 419 32,100 -2,220 Descending Washington Center
09:42AM 35.0733 -78.4064 212° Southwest 377 434 29,900 -2,040 Descending Washington Center
09:43AM 34.9800 -78.4817 213° Southwest 398 458 28,100 -420 Descending Washington Center
09:47AM 34.5953 -78.7714 212° Southwest 415 478 28,000 -60 Descending Jacksonville Center
09:48AM 34.5017 -78.8439 213° Southwest 415 478 28,000  Level Jacksonville Center
09:49AM 34.4081 -78.9189 213° Southwest 415 478 28,000  Level Jacksonville Center
09:50AM 34.3122 -78.9936 213° Southwest 410 472 28,000 -780 Level Jacksonville Center
09:51AM 34.2119 -79.0508 205° Southwest 405 466 26,500 -1,800 Descending Jacksonville Center
09:52AM 34.1006 -79.0983 199° South 413 475 24,500 -1,260 Descending Jacksonville Center
09:53AM 33.9958 -79.1481 201° Southwest 413 475 24,000 -1,080 Descending Jacksonville Center
09:54AM 33.8906 -79.1925 199° South 408 470 22,400 -2,100 Descending Jacksonville Center
09:55AM 33.7961 -79.2389 202° Southwest 396 456 19,900 -1,740 Descending Jacksonville Center
09:56AM 33.6911 -79.2933 203° Southwest 375 432 19,000 -1,500 Descending Jacksonville Center
09:57AM 33.6322 -79.3531 220° Southwest 357 411 16,900 -2,100 Descending Jacksonville Center
09:58AM 33.5506 -79.4161 213° Southwest 357 411 14,900 -2,040 Descending Jacksonville Center
09:59AM 33.4689 -79.4764 212° Southwest 357 411 12,900 -1,980 Descending Jacksonville Center
10:00AM 33.3892 -79.5367 212° Southwest 347 399 11,000 -1,200 Descending Jacksonville Center
10:01AM 33.3092 -79.5969 212° Southwest 347 399 10,600 -780 Descending Jacksonville Center
10:02AM 33.2417 -79.6492 213° Southwest 326 375 9,500 -1,200 Descending Jacksonville Center
10:03AM 33.1822 -79.6933 212° Southwest 291 335 8,200 -1,200 Descending Jacksonville Center
10:04AM 33.1292 -79.7375 215° Southwest 257 296 7,200 -1,260 Descending Jacksonville Center
10:05AM 33.0758 -79.7792 213° Southwest 247 284 5,700 -1,200 Descending Jacksonville Center
10:06AM 33.0228 -79.8206 213° Southwest 236 272 4,900 -480 Descending Jacksonville Center
10:07AM 32.9733 -79.8569 212° Southwest 224 258 4,800 -120 Descending Jacksonville Center
10:09AM 32.8826 -79.9174 220° Southwest  Level FlightAware Approximate
10:16AM 32.8833 -80.0333 348° North  Level FlightAware Approximate
10:17AM 32.8986 -80.0405 348° North  Level Estimated
10:18AM 32.8986 -80.0405 348° North  Level Estimated
10:19AM 32.8986 -80.0405 348° North  Level Estimated